Time;durP1;ratioP1;P1;durP2;ratioP2;P2;SDS_P1;SDS_P2;PMS_P1;PMS_P2;Temp;Humidity;BMP_temperature;BMP_pressure;BME280_temperature;BME280_humidity;BME280_pressure;Samples;Min_cycle;Max_cycle;Signal;HPM_P1;HPM_P2
2022/02/16 00:02:18;;;;;;;45.92;27.35;;;;;;;;;;5077681;28;20098;-84
2022/02/16 00:04:44;;;;;;;53.90;28.45;;;;;;;;;;5077790;28;20016;-83
2022/02/16 00:07:11;;;;;;;60.35;31.13;;;;;;;;;;5076350;28;20051;-83
2022/02/16 00:09:37;;;;;;;77.40;39.35;;;;;;;;;;5077606;28;20028;-83
2022/02/16 00:12:03;;;;;;;47.47;25.38;;;;;;;;;;5077417;28;20035;-84
2022/02/16 00:14:29;;;;;;;106.78;48.30;;;;;;;;;;5076570;28;20418;-84
2022/02/16 00:19:59;;;;;;;73.30;34.97;;;;;;;;;;5077462;28;20143;-84
2022/02/16 00:22:25;;;;;;;52.05;26.73;;;;;;;;;;5076467;28;20023;-84
2022/02/16 00:24:51;;;;;;;49.17;26.35;;;;;;;;;;5076515;28;20025;-84
2022/02/16 00:27:17;;;;;;;150.05;58.47;;;;;;;;;;5077387;28;20048;-82
2022/02/16 00:29:44;;;;;;;83.60;39.70;;;;;;;;;;5076223;28;20044;-83
2022/02/16 00:32:10;;;;;;;253.80;94.60;;;;;;;;;;5077397;28;20025;-84
2022/02/16 00:34:36;;;;;;;52.70;27.80;;;;;;;;;;5077702;28;20028;-84
2022/02/16 00:37:02;;;;;;;40.25;23.75;;;;;;;;;;5077307;28;20488;-84
2022/02/16 00:39:28;;;;;;;36.50;22.08;;;;;;;;;;5077635;28;20036;-85
2022/02/16 00:41:54;;;;;;;62.13;30.13;;;;;;;;;;5077620;28;20029;-84
2022/02/16 00:44:21;;;;;;;51.97;28.30;;;;;;;;;;5077679;28;20021;-84
2022/02/16 00:46:47;;;;;;;57.22;29.60;;;;;;;;;;5077265;28;20147;-84
2022/02/16 00:49:13;;;;;;;61.40;30.75;;;;;;;;;;5077564;28;20031;-84
2022/02/16 00:51:39;;;;;;;66.85;33.38;;;;;;;;;;5076220;28;20322;-84
2022/02/16 00:54:05;;;;;;;70.25;35.13;;;;;;;;;;5076298;28;20016;-84
2022/02/16 00:56:31;;;;;;;55.65;29.33;;;;;;;;;;5076144;28;20024;-84
2022/02/16 00:58:57;;;;;;;62.78;30.17;;;;;;;;;;5079826;28;20307;-84
2022/02/16 01:01:23;;;;;;;46.95;25.50;;;;;;;;;;5081027;28;20027;-84
2022/02/16 01:03:49;;;;;;;48.95;25.20;;;;;;;;;;5081473;28;20394;-85
2022/02/16 01:06:15;;;;;;;43.10;23.73;;;;;;;;;;5081068;28;20020;-85
2022/02/16 01:08:41;;;;;;;40.63;23.08;;;;;;;;;;5080817;28;20479;-84
2022/02/16 01:11:07;;;;;;;33.97;21.75;;;;;;;;;;5081246;28;20032;-81
2022/02/16 01:13:33;;;;;;;35.53;19.25;;;;;;;;;;5080543;28;20024;-81
2022/02/16 01:15:59;;;;;;;33.55;19.88;;;;;;;;;;5079288;28;20416;-80
2022/02/16 01:18:25;;;;;;;33.35;18.95;;;;;;;;;;5080263;28;20500;-80
2022/02/16 01:20:51;;;;;;;34.92;19.17;;;;;;;;;;5080518;28;20037;-80
2022/02/16 01:23:18;;;;;;;31.67;18.23;;;;;;;;;;5080448;28;20054;-80
2022/02/16 01:25:44;;;;;;;27.65;18.25;;;;;;;;;;5079264;28;20020;-80
2022/02/16 01:28:10;;;;;;;25.42;15.88;;;;;;;;;;5079861;28;20021;-80
2022/02/16 01:30:36;;;;;;;24.73;15.27;;;;;;;;;;5080338;28;20108;-80
2022/02/16 01:33:02;;;;;;;24.02;14.30;;;;;;;;;;5079035;28;20028;-80
2022/02/16 01:35:29;;;;;;;19.98;13.27;;;;;;;;;;5080176;28;20036;-80
2022/02/16 01:37:55;;;;;;;21.08;12.38;;;;;;;;;;5080069;28;20364;-80
2022/02/16 01:40:21;;;;;;;43.13;21.00;;;;;;;;;;5078814;28;20037;-80
2022/02/16 01:42:47;;;;;;;22.25;12.82;;;;;;;;;;5080036;28;20057;-81
2022/02/16 01:45:13;;;;;;;18.05;11.57;;;;;;;;;;5080017;28;20016;-81
2022/02/16 01:47:39;;;;;;;16.83;12.02;;;;;;;;;;5079850;28;20429;-81
2022/02/16 01:50:07;;;;;;;21.00;11.35;;;;;;;;;;5079645;28;20074;-80
2022/02/16 01:52:33;;;;;;;323.55;125.68;;;;;;;;;;5078606;28;20078;-80
2022/02/16 01:54:59;;;;;;;38.78;19.38;;;;;;;;;;5079795;28;20063;-81
2022/02/16 01:57:26;;;;;;;23.73;13.40;;;;;;;;;;5079656;28;20028;-80
2022/02/16 01:59:53;;;;;;;21.63;12.20;;;;;;;;;;5079527;28;20035;-81
2022/02/16 02:02:20;;;;;;;17.73;11.05;;;;;;;;;;5079701;28;20029;-81
2022/02/16 02:04:46;;;;;;;16.52;11.27;;;;;;;;;;5079313;28;20292;-81
2022/02/16 02:07:12;;;;;;;18.88;11.20;;;;;;;;;;5078231;28;20076;-81
2022/02/16 02:09:38;;;;;;;21.75;12.93;;;;;;;;;;5078674;28;20145;-81
2022/02/16 02:12:04;;;;;;;16.48;12.48;;;;;;;;;;5079489;28;20027;-81
2022/02/16 02:14:30;;;;;;;18.42;12.20;;;;;;;;;;5079332;28;20036;-81
2022/02/16 02:16:56;;;;;;;59.85;27.45;;;;;;;;;;5079316;28;20061;-81
2022/02/16 02:19:22;;;;;;;23.42;12.88;;;;;;;;;;5078221;28;20036;-81
2022/02/16 02:21:48;;;;;;;17.35;12.30;;;;;;;;;;5079237;28;20019;-81
2022/02/16 02:24:15;;;;;;;18.48;13.05;;;;;;;;;;5079422;28;20024;-81
2022/02/16 02:26:41;;;;;;;18.05;11.00;;;;;;;;;;5078063;28;20028;-81
2022/02/16 02:29:07;;;;;;;19.45;12.10;;;;;;;;;;5079223;28;20059;-81
2022/02/16 02:31:34;;;;;;;16.52;11.73;;;;;;;;;;5077989;28;20033;-81
2022/02/16 02:34:01;;;;;;;23.25;13.50;;;;;;;;;;5079057;28;20028;-81
2022/02/16 02:36:27;;;;;;;68.85;31.65;;;;;;;;;;5079168;28;20036;-80
2022/02/16 02:38:54;;;;;;;56.05;24.50;;;;;;;;;;5078836;28;20115;-81
2022/02/16 02:41:20;;;;;;;58.65;29.95;;;;;;;;;;5078844;28;20322;-82
2022/02/16 02:43:47;;;;;;;145.82;62.70;;;;;;;;;;5078836;28;20425;-82
2022/02/16 02:46:22;;;;;;;120.95;54.33;;;;;;;;;;5078835;28;20025;-81
2022/02/16 02:48:48;;;;;;;404.15;177.38;;;;;;;;;;5078666;28;20198;-81
2022/02/16 02:51:15;;;;;;;183.93;81.10;;;;;;;;;;5078596;28;20421;-81
2022/02/16 02:53:41;;;;;;;112.43;53.72;;;;;;;;;;5078472;28;20040;-80
2022/02/16 02:56:08;;;;;;;123.10;57.60;;;;;;;;;;5078373;28;20115;-81
2022/02/16 02:58:34;;;;;;;54.80;27.85;;;;;;;;;;5078388;28;20024;-81
2022/02/16 03:01:00;;;;;;;114.30;52.72;;;;;;;;;;5078398;28;20028;-81
2022/02/16 03:03:26;;;;;;;73.05;37.13;;;;;;;;;;5078436;28;20466;-81
2022/02/16 03:05:53;;;;;;;58.45;30.38;;;;;;;;;;5078427;28;20071;-81
2022/02/16 03:08:19;;;;;;;50.60;27.27;;;;;;;;;;5078108;28;20064;-81
2022/02/16 03:10:45;;;;;;;42.33;23.50;;;;;;;;;;5078287;28;20028;-81
2022/02/16 03:13:20;;;;;;;30.60;20.70;;;;;;;;;;5078308;28;20052;-81
2022/02/16 03:15:51;;;;;;;33.05;21.48;;;;;;;;;;5078267;28;20291;-81
2022/02/16 03:18:20;;;;;;;31.48;19.83;;;;;;;;;;5078520;28;20024;-82
2022/02/16 03:20:46;;;;;;;30.17;19.02;;;;;;;;;;5077857;28;20498;-81
2022/02/16 03:23:12;;;;;;;27.35;17.75;;;;;;;;;;5077929;28;20029;-81
2022/02/16 03:25:38;;;;;;;88.25;43.35;;;;;;;;;;5078383;28;20028;-82
2022/02/16 03:28:05;;;;;;;227.38;111.47;;;;;;;;;;5077921;28;20021;-81
2022/02/16 03:30:31;;;;;;;176.55;98.35;;;;;;;;;;5076872;28;20036;-81
2022/02/16 03:32:57;;;;;;;112.45;61.63;;;;;;;;;;5076718;28;20028;-81
2022/02/16 03:35:23;;;;;;;64.85;37.80;;;;;;;;;;5077806;28;20309;-81
2022/02/16 03:37:49;;;;;;;49.58;30.55;;;;;;;;;;5076767;28;20086;-81
2022/02/16 03:40:15;;;;;;;40.47;26.20;;;;;;;;;;5076633;28;20028;-81
2022/02/16 03:42:41;;;;;;;33.25;22.30;;;;;;;;;;5077758;28;20028;-81
2022/02/16 03:45:07;;;;;;;39.38;22.10;;;;;;;;;;5077744;28;20021;-82
2022/02/16 03:47:33;;;;;;;37.60;22.00;;;;;;;;;;5077512;28;20024;-81
2022/02/16 03:49:59;;;;;;;42.38;24.88;;;;;;;;;;5077427;28;20029;-81
2022/02/16 03:52:25;;;;;;;44.17;25.85;;;;;;;;;;5077703;28;20066;-81
2022/02/16 03:54:53;;;;;;;47.70;25.92;;;;;;;;;;5076431;28;20025;-81
2022/02/16 03:57:19;;;;;;;49.55;27.75;;;;;;;;;;5077444;28;20039;-81
2022/02/16 03:59:46;;;;;;;53.95;30.80;;;;;;;;;;5077146;28;20111;-80
2022/02/16 04:02:12;;;;;;;48.92;27.48;;;;;;;;;;5077249;28;20073;-80
2022/02/16 04:04:38;;;;;;;51.50;31.75;;;;;;;;;;5077338;28;20028;-80
2022/02/16 04:07:04;;;;;;;52.95;30.92;;;;;;;;;;5077101;28;20041;-81
2022/02/16 04:09:30;;;;;;;51.30;27.50;;;;;;;;;;5077239;28;20469;-80
2022/02/16 04:11:56;;;;;;;52.05;27.73;;;;;;;;;;5076085;28;20139;-81
2022/02/16 04:14:22;;;;;;;54.47;30.98;;;;;;;;;;5077139;28;20021;-80
2022/02/16 04:16:49;;;;;;;71.60;35.20;;;;;;;;;;5077408;28;20353;-81
2022/02/16 04:19:15;;;;;;;67.15;34.05;;;;;;;;;;5077148;28;20027;-81
2022/02/16 04:21:41;;;;;;;53.22;29.27;;;;;;;;;;5077480;28;20051;-80
2022/02/16 04:24:07;;;;;;;45.53;27.55;;;;;;;;;;5077243;28;20311;-81
2022/02/16 04:26:34;;;;;;;52.08;30.10;;;;;;;;;;5077245;28;20020;-81
2022/02/16 04:29:00;;;;;;;47.70;28.60;;;;;;;;;;5076975;28;20067;-81
2022/02/16 04:31:26;;;;;;;44.20;27.50;;;;;;;;;;5076015;28;20107;-81
2022/02/16 04:33:52;;;;;;;47.35;28.45;;;;;;;;;;5076416;28;20028;-81
2022/02/16 04:36:25;;;;;;;45.05;29.75;;;;;;;;;;5077041;28;20099;-81
2022/02/16 04:38:55;;;;;;;46.88;31.40;;;;;;;;;;5077224;28;20036;-81
2022/02/16 04:41:21;;;;;;;48.25;31.02;;;;;;;;;;5076888;28;20078;-80
2022/02/16 04:43:47;;;;;;;43.00;29.73;;;;;;;;;;5076962;28;20021;-80
2022/02/16 04:46:13;;;;;;;46.85;29.73;;;;;;;;;;5076872;28;20342;-80
2022/02/16 04:48:39;;;;;;;48.53;30.30;;;;;;;;;;5076996;28;20032;-80
2022/02/16 04:51:06;;;;;;;45.15;27.92;;;;;;;;;;5076806;28;20027;-81
2022/02/16 04:53:35;;;;;;;46.50;28.67;;;;;;;;;;5076890;28;20025;-81
2022/02/16 04:56:01;;;;;;;41.22;26.27;;;;;;;;;;5076860;28;20349;-80
2022/02/16 04:58:27;;;;;;;48.42;30.65;;;;;;;;;;5076665;28;20123;-79
2022/02/16 05:00:54;;;;;;;38.72;25.98;;;;;;;;;;5076730;28;20142;-80
2022/02/16 05:03:20;;;;;;;36.80;24.08;;;;;;;;;;5076623;28;20021;-80
2022/02/16 05:05:46;;;;;;;35.78;24.50;;;;;;;;;;5076838;28;20147;-80
2022/02/16 05:08:12;;;;;;;35.42;24.85;;;;;;;;;;5076379;28;20045;-80
2022/02/16 05:10:38;;;;;;;44.45;28.73;;;;;;;;;;5076634;28;20052;-80
2022/02/16 05:13:04;;;;;;;42.47;24.90;;;;;;;;;;5076686;28;20139;-80
2022/02/16 05:15:30;;;;;;;34.47;23.23;;;;;;;;;;5076551;28;20412;-80
2022/02/16 05:17:56;;;;;;;32.00;22.20;;;;;;;;;;5076458;28;20031;-81
2022/02/16 05:20:22;;;;;;;35.20;22.80;;;;;;;;;;5076583;28;20028;-80
2022/02/16 05:22:48;;;;;;;32.33;21.85;;;;;;;;;;5076780;28;20041;-81
2022/02/16 05:25:14;;;;;;;33.40;21.67;;;;;;;;;;5076710;28;20032;-80
2022/02/16 05:27:40;;;;;;;38.47;22.83;;;;;;;;;;5076593;28;20016;-81
2022/02/16 05:30:06;;;;;;;36.67;23.80;;;;;;;;;;5076631;28;20024;-81
2022/02/16 05:32:33;;;;;;;33.17;23.40;;;;;;;;;;5075208;28;20029;-81
2022/02/16 05:34:59;;;;;;;34.17;22.58;;;;;;;;;;5075384;28;20101;-81
2022/02/16 05:37:26;;;;;;;32.65;22.35;;;;;;;;;;5076331;28;20024;-81
2022/02/16 05:39:52;;;;;;;33.60;22.83;;;;;;;;;;5076540;28;20029;-81
2022/02/16 05:42:18;;;;;;;39.70;26.55;;;;;;;;;;5076508;28;20013;-81
2022/02/16 05:44:44;;;;;;;35.03;24.23;;;;;;;;;;5076694;28;20027;-81
2022/02/16 05:47:10;;;;;;;32.60;22.55;;;;;;;;;;5079869;28;20016;-80
2022/02/16 05:49:36;;;;;;;39.22;25.40;;;;;;;;;;5079711;28;20021;-81
2022/02/16 05:52:03;;;;;;;49.90;30.42;;;;;;;;;;5079968;28;20027;-80
2022/02/16 05:54:29;;;;;;;60.50;34.40;;;;;;;;;;5079651;28;20032;-81
2022/02/16 05:56:55;;;;;;;50.45;30.20;;;;;;;;;;5078731;28;20060;-80
2022/02/16 05:59:21;;;;;;;41.85;27.38;;;;;;;;;;5079642;28;20025;-80
2022/02/16 06:01:47;;;;;;;36.33;23.27;;;;;;;;;;5067054;28;20068;-80
2022/02/16 06:04:16;;;;;;;33.35;22.85;;;;;;;;;;5071738;28;20074;-80
2022/02/16 06:06:42;;;;;;;30.17;20.83;;;;;;;;;;5079001;28;20021;-80
2022/02/16 06:09:08;;;;;;;32.50;21.02;;;;;;;;;;5079470;28;20064;-79
2022/02/16 06:11:34;;;;;;;27.52;19.45;;;;;;;;;;5065003;28;20020;-81
2022/02/16 06:14:02;;;;;;;28.55;20.10;;;;;;;;;;5078238;28;20489;-80
2022/02/16 06:16:28;;;;;;;29.35;20.02;;;;;;;;;;5079525;28;20090;-80
2022/02/16 06:18:54;;;;;;;28.73;19.42;;;;;;;;;;5078073;28;20027;-80
2022/02/16 06:21:21;;;;;;;27.90;19.92;;;;;;;;;;5075455;28;20060;-80
2022/02/16 06:23:47;;;;;;;30.38;19.00;;;;;;;;;;5059432;28;20025;-80
2022/02/16 06:26:14;;;;;;;30.08;19.35;;;;;;;;;;5059237;28;20032;-81
2022/02/16 06:28:40;;;;;;;30.35;19.65;;;;;;;;;;5058285;28;20036;-81
2022/02/16 06:31:07;;;;;;;26.45;18.52;;;;;;;;;;5058008;28;20067;-81
2022/02/16 06:33:33;;;;;;;28.67;18.00;;;;;;;;;;5058763;28;20033;-81
2022/02/16 06:36:00;;;;;;;26.65;18.25;;;;;;;;;;5058949;28;20468;-81
2022/02/16 06:38:26;;;;;;;25.48;16.90;;;;;;;;;;5058913;28;20346;-81
2022/02/16 06:40:52;;;;;;;26.30;17.42;;;;;;;;;;5058815;28;20437;-81
2022/02/16 06:43:18;;;;;;;26.90;18.35;;;;;;;;;;5058770;28;20087;-79
2022/02/16 06:45:44;;;;;;;34.78;18.30;;;;;;;;;;5058840;28;20021;-81
2022/02/16 06:48:10;;;;;;;27.35;17.83;;;;;;;;;;5058625;28;20017;-81
2022/02/16 06:50:36;;;;;;;25.25;16.80;;;;;;;;;;5058571;28;20049;-85
2022/02/16 06:53:02;;;;;;;27.40;17.35;;;;;;;;;;5057351;28;20304;-81
2022/02/16 06:55:28;;;;;;;46.08;20.48;;;;;;;;;;5068465;28;20414;-81
2022/02/16 06:57:55;;;;;;;44.30;25.48;;;;;;;;;;5065012;28;20033;-81
2022/02/16 07:00:21;;;;;;;39.53;27.70;;;;;;;;;;5068567;28;20446;-81
2022/02/16 07:02:48;;;;;;;56.55;33.50;;;;;;;;;;5066752;28;20020;-81
2022/02/16 07:05:14;;;;;;;64.78;39.25;;;;;;;;;;5066199;28;20016;-80
2022/02/16 07:07:41;;;;;;;87.22;49.05;;;;;;;;;;5071567;28;20441;-81
2022/02/16 07:10:07;;;;;;;72.47;40.72;;;;;;;;;;5078068;28;20040;-80
2022/02/16 07:12:33;;;;;;;102.65;58.42;;;;;;;;;;5077792;28;20024;-81
2022/02/16 07:14:59;;;;;;;157.90;73.22;;;;;;;;;;5078189;28;20036;-82
2022/02/16 07:17:26;;;;;;;75.20;42.92;;;;;;;;;;5078047;28;20024;-81
2022/02/16 07:19:52;;;;;;;101.15;53.38;;;;;;;;;;5078085;28;20532;-81
2022/02/16 07:22:18;;;;;;;84.90;45.72;;;;;;;;;;5078349;28;20099;-81
2022/02/16 07:24:44;;;;;;;60.50;34.65;;;;;;;;;;5078134;28;20023;-81
2022/02/16 07:27:10;;;;;;;46.40;25.50;;;;;;;;;;5077987;28;20107;-80
2022/02/16 07:29:36;;;;;;;34.92;21.25;;;;;;;;;;5078032;28;20086;-81
2022/02/16 07:32:03;;;;;;;36.13;21.63;;;;;;;;;;5077828;28;20422;-81
2022/02/16 07:34:30;;;;;;;32.67;19.95;;;;;;;;;;5076478;28;20217;-81
2022/02/16 07:37:00;;;;;;;39.15;24.90;;;;;;;;;;5076474;28;20040;-80
2022/02/16 07:39:27;;;;;;;35.20;22.70;;;;;;;;;;5077627;28;20029;-81
2022/02/16 07:41:54;;;;;;;54.85;28.85;;;;;;;;;;5077690;28;20128;-81
2022/02/16 07:44:21;;;;;;;48.38;30.60;;;;;;;;;;5077593;28;20521;-81
2022/02/16 07:46:47;;;;;;;44.95;30.25;;;;;;;;;;5077790;28;20407;-81
2022/02/16 07:49:13;;;;;;;45.50;29.38;;;;;;;;;;5076775;28;20323;-82
2022/02/16 07:51:39;;;;;;;34.00;22.48;;;;;;;;;;5077754;28;20035;-81
2022/02/16 07:54:05;;;;;;;31.05;21.13;;;;;;;;;;5077677;28;20079;-81
2022/02/16 07:56:34;;;;;;;39.78;26.55;;;;;;;;;;5077629;28;20024;-81
2022/02/16 07:59:00;;;;;;;53.42;33.53;;;;;;;;;;5077530;28;20325;-81
2022/02/16 08:01:26;;;;;;;49.95;33.10;;;;;;;;;;5076266;28;20074;-81
2022/02/16 08:03:52;;;;;;;42.92;28.45;;;;;;;;;;5077225;28;20070;-81
2022/02/16 08:06:18;;;;;;;41.35;27.75;;;;;;;;;;5077646;28;20066;-81
2022/02/16 08:08:44;;;;;;;45.13;30.55;;;;;;;;;;5076312;28;20127;-81
2022/02/16 08:11:10;;;;;;;45.42;29.75;;;;;;;;;;5077185;28;20021;-81
2022/02/16 08:13:36;;;;;;;44.05;26.50;;;;;;;;;;5077414;28;20307;-81
2022/02/16 08:16:03;;;;;;;59.65;31.98;;;;;;;;;;5076060;28;20107;-81
2022/02/16 08:18:29;;;;;;;215.10;92.45;;;;;;;;;;5075848;28;20044;-81
2022/02/16 08:20:55;;;;;;;204.48;89.65;;;;;;;;;;5077410;28;20032;-81
2022/02/16 08:23:21;;;;;;;193.73;88.38;;;;;;;;;;5077334;28;20399;-81
2022/02/16 08:25:47;;;;;;;42.90;25.67;;;;;;;;;;5076180;28;20112;-81
2022/02/16 08:28:13;;;;;;;54.35;29.63;;;;;;;;;;5076879;28;20050;-81
2022/02/16 08:30:39;;;;;;;332.88;155.88;;;;;;;;;;5075769;28;20123;-82
2022/02/16 08:33:10;;;;;;;66.75;38.85;;;;;;;;;;5077221;28;20111;-81
2022/02/16 08:35:36;;;;;;;85.18;42.00;;;;;;;;;;5077268;28;20064;-81
2022/02/16 08:38:03;;;;;;;76.40;40.67;;;;;;;;;;5075914;28;20059;-81
2022/02/16 08:40:30;;;;;;;229.13;105.95;;;;;;;;;;5077016;28;20033;-81
2022/02/16 08:42:56;;;;;;;67.32;33.28;;;;;;;;;;5076680;28;20032;-81
2022/02/16 08:45:24;;;;;;;42.83;24.90;;;;;;;;;;5076983;28;20024;-81
2022/02/16 08:47:50;;;;;;;45.85;24.13;;;;;;;;;;5076837;28;20029;-81
2022/02/16 08:50:16;;;;;;;103.97;45.70;;;;;;;;;;5076826;28;20050;-82
2022/02/16 08:52:42;;;;;;;37.25;22.30;;;;;;;;;;5076905;28;20031;-81
2022/02/16 08:55:08;;;;;;;33.13;18.33;;;;;;;;;;5075935;28;20061;-81
2022/02/16 08:57:36;;;;;;;75.60;31.48;;;;;;;;;;5076912;28;20330;-82
2022/02/16 09:00:04;;;;;;;82.70;34.28;;;;;;;;;;5076845;28;20024;-84
2022/02/16 09:02:30;;;;;;;156.40;58.33;;;;;;;;;;5076743;28;20021;-81
2022/02/16 09:04:56;;;;;;;353.67;129.82;;;;;;;;;;5076707;28;20024;-81
2022/02/16 09:07:28;;;;;;;34.35;19.63;;;;;;;;;;5076799;28;20065;-81
2022/02/16 09:09:54;;;;;;;;;;;;;;;;;;5077160;28;20410;-81
2022/02/16 09:12:22;;;;;;;146.32;52.70;;;;;;;;;;5077025;28;19995;-81
2022/02/16 09:14:48;;;;;;;39.42;19.98;;;;;;;;;;5076711;28;20292;-81
2022/02/16 09:17:14;;;;;;;20.90;14.20;;;;;;;;;;5075534;28;20051;-81
2022/02/16 09:19:40;;;;;;;44.95;22.50;;;;;;;;;;5077386;28;20024;-82
2022/02/16 09:22:08;;;;;;;26.95;17.00;;;;;;;;;;5080598;28;20012;-81
2022/02/16 09:24:35;;;;;;;379.45;154.50;;;;;;;;;;5080369;28;20394;-81
2022/02/16 09:27:01;;;;;;;36.63;20.30;;;;;;;;;;5080360;28;20020;-81
2022/02/16 09:29:27;;;;;;;155.18;60.33;;;;;;;;;;5080240;28;20024;-81
2022/02/16 09:31:54;;;;;;;116.68;48.47;;;;;;;;;;5080158;28;20059;-81
2022/02/16 09:34:21;;;;;;;23.63;16.88;;;;;;;;;;5079090;28;20486;-81
2022/02/16 09:36:47;;;;;;;40.92;23.08;;;;;;;;;;5080385;28;20072;-82
2022/02/16 09:39:13;;;;;;;35.45;20.38;;;;;;;;;;5080133;28;20036;-81
2022/02/16 09:41:43;;;;;;;48.90;26.77;;;;;;;;;;5080239;28;20036;-81
2022/02/16 09:44:12;;;;;;;51.80;27.00;;;;;;;;;;5080105;28;20039;-81
2022/02/16 09:46:38;;;;;;;31.35;21.23;;;;;;;;;;5079655;28;20020;-81
2022/02/16 09:49:04;;;;;;;26.23;19.00;;;;;;;;;;5078624;28;20411;-81
2022/02/16 09:51:30;;;;;;;49.08;26.38;;;;;;;;;;5079741;28;20024;-83
2022/02/16 09:53:56;;;;;;;29.02;19.48;;;;;;;;;;5079933;28;20413;-82
2022/02/16 09:56:22;;;;;;;26.88;17.65;;;;;;;;;;5080011;28;20379;-78
2022/02/16 09:58:49;;;;;;;107.95;43.65;;;;;;;;;;5079524;28;20029;-80
2022/02/16 10:01:16;;;;;;;24.73;17.58;;;;;;;;;;5074732;28;20415;-80
2022/02/16 10:03:58;;;;;;;212.82;79.28;;;;;;;;;;5073068;28;20032;-80
2022/02/16 10:06:38;;;;;;;101.53;42.92;;;;;;;;;;5079522;28;20021;-80
2022/02/16 10:09:05;;;;;;;29.33;20.25;;;;;;;;;;5079270;28;20072;-80
2022/02/16 10:11:31;;;;;;;431.25;156.70;;;;;;;;;;5078461;28;20028;-80
2022/02/16 10:14:20;;;;;;;25.77;16.90;;;;;;;;;;5078427;28;20296;-80
2022/02/16 10:16:46;;;;;;;21.35;15.25;;;;;;;;;;5079314;28;20478;-79
2022/02/16 10:19:13;;;;;;;30.95;18.08;;;;;;;;;;5079387;28;20102;-80
2022/02/16 10:21:39;;;;;;;22.85;16.02;;;;;;;;;;5079213;28;20028;-79
2022/02/16 10:24:05;;;;;;;60.70;28.67;;;;;;;;;;5078981;28;20025;-79
2022/02/16 10:27:01;;;;;;;27.08;17.95;;;;;;;;;;5079182;28;20069;-79
2022/02/16 10:29:29;;;;;;;27.83;19.60;;;;;;;;;;5037230;28;20189;-80
2022/02/16 10:31:56;;;;;;;34.50;21.48;;;;;;;;;;5036432;28;20108;-80
2022/02/16 10:34:22;;;;;;;57.17;30.08;;;;;;;;;;5037207;28;20029;-80
2022/02/16 10:36:49;;;;;;;43.63;24.52;;;;;;;;;;5037175;28;20060;-80
2022/02/16 10:39:19;;;;;;;97.35;41.72;;;;;;;;;;5037100;28;20061;-79
2022/02/16 10:41:53;;;;;;;40.50;24.15;;;;;;;;;;5037096;28;20025;-80
2022/02/16 10:44:31;;;;;;;33.10;22.00;;;;;;;;;;5037119;28;20029;-80
2022/02/16 10:47:06;;;;;;;63.63;30.27;;;;;;;;;;5036907;28;20076;-80
2022/02/16 10:49:33;;;;;;;41.47;25.00;;;;;;;;;;5036734;28;20426;-80
2022/02/16 10:52:19;;;;;;;31.38;20.42;;;;;;;;;;5036870;28;20060;-80
2022/02/16 10:54:56;;;;;;;40.67;27.77;;;;;;;;;;5036774;28;20022;-79
2022/02/16 10:57:22;;;;;;;82.43;41.47;;;;;;;;;;5019813;28;20029;-79
2022/02/16 10:59:48;;;;;;;42.42;26.65;;;;;;;;;;5036535;28;20430;-79
2022/02/16 11:02:15;;;;;;;27.65;19.60;;;;;;;;;;5036618;28;20045;-79
2022/02/16 11:04:42;;;;;;;25.77;17.00;;;;;;;;;;5021306;28;20056;-79
2022/02/16 11:07:08;;;;;;;41.70;21.23;;;;;;;;;;5078304;28;20040;-79
2022/02/16 11:09:35;;;;;;;16.08;11.60;;;;;;;;;;5078450;28;20024;-79
2022/02/16 11:12:03;;;;;;;22.15;15.77;;;;;;;;;;5078278;28;20732;-79
2022/02/16 11:14:31;;;;;;;26.40;16.35;;;;;;;;;;5078304;28;20035;-80
2022/02/16 11:16:58;;;;;;;22.83;15.35;;;;;;;;;;5077942;28;20385;-79
2022/02/16 11:19:38;;;;;;;35.92;19.50;;;;;;;;;;5077973;28;20031;-79
2022/02/16 11:22:13;;;;;;;36.35;18.83;;;;;;;;;;5078135;28;20028;-79
2022/02/16 11:24:43;;;;;;;19.02;12.93;;;;;;;;;;5077992;28;20024;-81
2022/02/16 11:27:21;;;;;;;91.90;36.63;;;;;;;;;;5078029;28;20020;-79
2022/02/16 11:29:48;;;;;;;472.25;171.48;;;;;;;;;;5077917;28;20033;-80
2022/02/16 11:32:15;;;;;;;78.55;33.33;;;;;;;;;;5077912;28;20100;-79
2022/02/16 11:34:45;;;;;;;50.63;23.35;;;;;;;;;;5077905;28;20315;-80
2022/02/16 11:37:12;;;;;;;394.38;127.80;;;;;;;;;;5077705;28;20029;-79
2022/02/16 11:39:59;;;;;;;247.27;84.00;;;;;;;;;;5077441;28;20036;-80
2022/02/16 11:42:44;;;;;;;754.60;318.77;;;;;;;;;;5077358;28;20031;-80
2022/02/16 11:45:10;;;;;;;667.65;275.05;;;;;;;;;;5076335;28;20024;-80
2022/02/16 11:47:36;;;;;;;458.73;170.43;;;;;;;;;;5077363;28;20025;-80
2022/02/16 11:50:08;;;;;;;121.97;48.63;;;;;;;;;;5077265;28;20111;-80
2022/02/16 11:52:34;;;;;;;;;;;;;;;;;;5077908;28;20025;-80
2022/02/16 11:55:00;;;;;;;248.75;92.68;;;;;;;;;;5077351;28;19904;-80
2022/02/16 11:57:43;;;;;;;202.57;75.63;;;;;;;;;;5077368;28;20029;-79
2022/02/16 12:00:17;;;;;;;757.42;330.77;;;;;;;;;;5076268;28;20426;-80
2022/02/16 12:02:56;;;;;;;815.45;357.08;;;;;;;;;;5077251;28;20027;-80
2022/02/16 12:05:45;;;;;;;455.75;167.15;;;;;;;;;;5077233;28;20099;-80
2022/02/16 12:08:36;;;;;;;124.22;48.70;;;;;;;;;;5077050;28;20044;-79
2022/02/16 12:11:16;;;;;;;54.97;25.98;;;;;;;;;;5035395;28;20057;-79
2022/02/16 12:13:46;;;;;;;43.33;20.55;;;;;;;;;;5035016;28;20034;-80
2022/02/16 12:16:13;;;;;;;35.75;18.52;;;;;;;;;;5018810;28;20029;-80
2022/02/16 12:18:40;;;;;;;36.75;20.63;;;;;;;;;;5035248;28;20029;-80
2022/02/16 12:21:06;;;;;;;79.22;33.90;;;;;;;;;;5034964;28;20030;-80
2022/02/16 12:23:39;;;;;;;336.52;130.68;;;;;;;;;;5018756;28;20407;-80
2022/02/16 12:26:11;;;;;;;340.98;134.07;;;;;;;;;;5035224;28;20052;-80
2022/02/16 12:28:49;;;;;;;53.53;24.70;;;;;;;;;;5034953;28;20072;-85
2022/02/16 12:31:16;;;;;;;46.10;21.15;;;;;;;;;;5035364;28;20025;-80
2022/02/16 12:33:42;;;;;;;56.50;24.42;;;;;;;;;;5018579;28;20021;-80
2022/02/16 12:36:09;;;;;;;184.65;68.13;;;;;;;;;;5034864;28;20124;-80
2022/02/16 12:38:36;;;;;;;26.90;15.32;;;;;;;;;;5035407;28;20087;-80
2022/02/16 12:41:06;;;;;;;15.45;11.52;;;;;;;;;;5035052;28;20339;-80
2022/02/16 12:43:32;;;;;;;25.52;14.02;;;;;;;;;;5035177;28;20088;-80
2022/02/16 12:45:59;;;;;;;52.97;23.75;;;;;;;;;;5035097;28;20343;-81
2022/02/16 12:48:25;;;;;;;56.83;23.83;;;;;;;;;;5063483;28;20173;-80
2022/02/16 12:50:57;;;;;;;71.45;29.45;;;;;;;;;;5076901;28;20024;-80
2022/02/16 12:53:35;;;;;;;25.02;12.90;;;;;;;;;;5076887;28;20085;-80
2022/02/16 12:56:09;;;;;;;47.70;21.88;;;;;;;;;;5079788;28;20033;-80
2022/02/16 12:58:35;;;;;;;55.22;21.75;;;;;;;;;;5079855;28;20036;-80
2022/02/16 13:01:01;;;;;;;126.35;40.03;;;;;;;;;;5080984;28;20059;-81
2022/02/16 13:03:28;;;;;;;20.77;12.18;;;;;;;;;;5080882;28;20027;-81
2022/02/16 13:05:54;;;;;;;17.60;11.18;;;;;;;;;;5080666;28;20024;-80
2022/02/16 13:08:24;;;;;;;22.48;13.05;;;;;;;;;;5080453;28;20059;-81
2022/02/16 13:10:50;;;;;;;17.95;11.70;;;;;;;;;;5080584;28;20416;-81
2022/02/16 13:13:20;;;;;;;24.10;14.43;;;;;;;;;;5080644;28;20103;-80
2022/02/16 13:15:47;;;;;;;26.80;15.43;;;;;;;;;;5080575;28;20024;-80
2022/02/16 13:18:14;;;;;;;15.50;11.40;;;;;;;;;;5080428;28;20108;-80
2022/02/16 13:20:43;;;;;;;17.08;10.18;;;;;;;;;;5080312;28;20025;-80
2022/02/16 13:23:15;;;;;;;15.98;11.52;;;;;;;;;;5080565;28;20078;-81
2022/02/16 13:25:42;;;;;;;18.08;12.48;;;;;;;;;;5080312;28;20040;-80
2022/02/16 13:28:16;;;;;;;20.77;13.45;;;;;;;;;;5080242;28;20025;-80
2022/02/16 13:30:43;;;;;;;22.20;13.32;;;;;;;;;;5080342;28;20032;-80
2022/02/16 13:33:15;;;;;;;28.80;15.55;;;;;;;;;;5079067;28;20060;-81
2022/02/16 13:35:43;;;;;;;24.90;12.65;;;;;;;;;;5080056;28;20028;-80
2022/02/16 13:38:10;;;;;;;30.45;14.80;;;;;;;;;;5079872;28;20095;-80
2022/02/16 13:40:48;;;;;;;14.48;10.35;;;;;;;;;;5080020;28;20513;-80
2022/02/16 13:43:15;;;;;;;18.23;11.45;;;;;;;;;;5078908;28;20024;-81
2022/02/16 13:45:42;;;;;;;25.05;14.70;;;;;;;;;;5080010;28;20021;-81
2022/02/16 13:48:08;;;;;;;42.45;21.13;;;;;;;;;;5079846;28;20284;-81
2022/02/16 13:50:37;;;;;;;15.45;10.73;;;;;;;;;;5079830;28;20425;-81
2022/02/16 13:53:05;;;;;;;15.63;10.05;;;;;;;;;;5079907;28;20116;-80
2022/02/16 13:55:45;;;;;;;19.15;10.50;;;;;;;;;;5079802;28;20532;-81
2022/02/16 13:58:11;;;;;;;17.90;11.65;;;;;;;;;;5079717;28;20036;-81
2022/02/16 14:00:37;;;;;;;14.82;9.45;;;;;;;;;;5079736;28;20036;-81
2022/02/16 14:03:10;;;;;;;14.52;9.75;;;;;;;;;;5079534;28;20107;-81
2022/02/16 14:05:37;;;;;;;22.35;14.77;;;;;;;;;;5077339;28;20024;-81
2022/02/16 14:08:04;;;;;;;21.38;15.88;;;;;;;;;;5079368;28;20041;-81
2022/02/16 14:10:31;;;;;;;11.75;7.85;;;;;;;;;;5078391;28;20033;-81
2022/02/16 14:12:57;;;;;;;14.35;10.55;;;;;;;;;;5079320;28;20035;-81
2022/02/16 14:15:24;;;;;;;15.88;10.05;;;;;;;;;;5079380;28;20029;-81
2022/02/16 14:17:50;;;;;;;20.17;12.30;;;;;;;;;;5078944;28;20029;-81
2022/02/16 14:20:17;;;;;;;13.90;9.10;;;;;;;;;;5079620;28;20031;-81
2022/02/16 14:22:43;;;;;;;16.67;9.30;;;;;;;;;;5079526;28;20021;-80